Latest Weather Observations for Cape Bruny AWS

IDT60801

Issued at 3:51 pm EDT Saturday 22 February 2020 (issued every 10 minutes, with the page automatically refreshed every 10 minutes)

About weather observations | Map of weather stations | Latest weather observations for TAS | Other Formats
Station Details ID: 094198 Name: CAPE BRUNY (CAPE BRUNY) Lat: -43.49 Lon: 147.14 Height: 59.7 m
Data from the previous 72 hours. | See also: Recent months at Cape Bruny AWS
Date/Time
EDT
Temp
°C
App
Temp
°C
Dew
Point
°C
Rel
Hum
%
Delta-T
°C
Wind Press
QNH
hPa
Press
MSL
hPa
Rain since
9am
mm
Dir  Spd
km/h
Gust
km/h
Spd
kts
Gust
kts
22/03:30pm 17.3 12.3 9.7 61 4.0 ESE 26 32 14 17 1022.5 1022.4 0.0
22/03:00pm 17.6 12.7 10.0 61 4.0 ESE 26 30 14 16 1022.5 1022.4 0.0
22/02:30pm 17.5 12.3 8.9 57 4.5 ESE 26 32 14 17 1022.8 1022.7 0.0
22/02:00pm 17.4 12.3 9.1 58 4.3 ESE 26 32 14 17 1023.1 1023.0 0.0
22/01:30pm 17.3 12.4 8.4 56 4.6 ESE 24 30 13 16 1023.1 1023.0 0.0
22/01:00pm 17.1 12.2 8.3 56 4.5 ESE 24 32 13 17 1023.4 1023.3 0.0
22/12:30pm 18.1 14.2 8.7 54 4.9 SE 19 24 10 13 1023.6 1023.5 0.0
22/12:00pm 17.8 14.9 6.3 47 5.7 S 11 17 6 9 1023.7 1023.6 0.0
22/11:30am 18.0 15.6 6.8 48 5.6 WSW 9 13 5 7 1023.6 1023.5 0.0
22/11:00am 17.8 14.6 6.7 48 5.5 NNE 13 20 7 11 1023.7 1023.6 0.0
22/10:30am 16.7 12.7 6.8 52 4.9 NE 17 24 9 13 1023.7 1023.6 0.0
22/10:00am 15.6 11.8 7.4 58 4.1 NNE 17 22 9 12 1023.8 1023.7 0.0
22/09:30am 13.9 9.4 7.0 63 3.4 NNE 20 28 11 15 1023.8 1023.7 0.0
22/09:00am 13.4 9.2 7.4 67 2.9 NE 19 26 10 14 1023.7 1023.6 0.0
22/08:30am 12.9 9.9 7.6 70 2.6 NNE 13 19 7 10 1023.4 1023.3 0.0
22/08:00am 12.1 9.1 7.6 74 2.2 N 13 15 7 8 1023.2 1023.1 0.0
22/07:30am 11.7 7.9 6.0 68 2.7 NNW 15 24 8 13 1023.1 1023.0 0.0
22/07:00am 11.6 6.5 5.9 68 2.7 NW 22 28 12 15 1022.9 1022.8 0.0
22/06:30am 10.9 6.8 6.1 72 2.2 NNW 17 24 9 13 1022.6 1022.5 0.0
22/06:00am 10.3 5.7 5.5 72 2.2 NNW 19 22 10 12 1022.6 1022.5 0.0
22/05:30am 9.3 4.6 5.3 76 1.8 N 19 22 10 12 1022.4 1022.3 0.0
22/05:00am 9.3 4.9 4.7 73 2.0 N 17 20 9 11 1022.5 1022.4 0.0
22/04:30am 11.4 6.8 6.3 71 2.4 NW 20 28 11 15 1022.5 1022.4 0.0
22/04:00am 11.2 5.7 6.1 71 2.4 NW 24 30 13 16 1022.5 1022.4 0.0
22/03:30am 11.0 6.4 5.7 70 2.5 NW 19 24 10 13 1022.7 1022.6 0.0
22/03:00am 10.9 6.6 5.4 69 2.5 NW 17 20 9 11 1022.8 1022.7 0.0
22/02:30am 11.4 6.8 6.3 71 2.4 NW 20 28 11 15 1022.6 1022.5 0.0
22/02:00am 11.5 7.8 6.4 71 2.4 NW 15 24 8 13 1022.7 1022.6 0.0
22/01:30am 11.5 6.9 5.8 68 2.7 NW 19 24 10 13 1022.7 1022.6 0.0
22/01:00am 11.4 7.2 5.7 68 2.6 NW 17 22 9 12 1022.8 1022.7 0.0
22/12:30am 11.3 6.7 5.6 68 2.6 NW 19 20 10 11 1022.7 1022.6 0.0
22/12:00am 11.2 7.7 5.3 67 2.7 NW 13 20 7 11 1022.8 1022.7 0.0
 
Date/Time
EDT
Temp
°C
App
Temp
°C
Dew
Point
°C
Rel
Hum
%
Delta-T
°C
Wind Press
QNH
hPa
Press
MSL
hPa
Rain since
9am
mm
Dir  Spd
km/h
Gust
km/h
Spd
kts
Gust
kts
21/11:30pm 11.1 6.9 5.6 69 2.5 WNW 17 22 9 12 1022.7 1022.6 0.0
21/11:00pm 11.0 6.8 5.5 69 2.5 WNW 17 24 9 13 1022.9 1022.8 0.0
21/10:30pm 11.3 7.0 5.2 66 2.8 WNW 17 20 9 11 1022.6 1022.5 0.0
21/10:00pm 11.6 6.4 5.5 66 2.8 W 22 28 12 15 1022.7 1022.6 0.0
21/09:30pm 11.8 5.8 5.2 64 3.0 W 26 32 14 17 1022.3 1022.2 0.0
21/09:00pm 12.0 5.2 5.0 62 3.2 W 30 37 16 20 1022.2 1022.1 0.0
21/08:30pm 12.2 5.9 5.8 65 3.0 WSW 28 37 15 20 1021.9 1021.8 0.0
21/08:00pm 12.3 5.5 5.2 62 3.3 WSW 30 39 16 21 1021.5 1021.4 0.0
21/07:30pm 12.3 5.8 4.8 60 3.4 WSW 28 37 15 20 1021.0 1020.9 0.0
21/07:00pm 13.5 6.7 5.2 57 3.9 WSW 30 43 16 23 1020.6 1020.5 0.0
21/06:30pm 13.8 7.0 5.2 56 4.0 WSW 30 41 16 22 1020.1 1020.0 0.0
21/06:00pm 14.4 7.3 5.5 55 4.2 WSW 32 41 17 22 1019.8 1019.7 0.0
21/05:30pm 14.7 7.9 5.2 53 4.5 WSW 30 39 16 21 1019.6 1019.5 0.0
21/05:00pm 14.8 7.8 4.2 49 4.9 WSW 30 41 16 22 1019.5 1019.4 0.0
21/04:30pm 15.3 7.9 4.1 47 5.2 WSW 32 43 17 23 1019.5 1019.4 0.0
21/04:00pm 14.9 8.5 5.4 53 4.5 WSW 28 37 15 20 1019.3 1019.2 0.0
21/03:30pm 15.7 8.2 4.4 47 5.3 WSW 33 41 18 22 1019.4 1019.3 0.0
21/03:00pm 16.0 8.7 4.7 47 5.3 WSW 32 41 17 22 1019.2 1019.1 0.0
21/02:30pm 15.8 8.5 5.4 50 5.0 WSW 33 46 18 25 1019.0 1019.0 0.0
21/02:00pm 15.7 8.7 5.9 52 4.7 WSW 32 43 17 23 1019.0 1019.0 0.0
21/01:30pm 15.3 8.2 5.5 52 4.7 WSW 32 43 17 23 1018.7 1018.7 0.0
21/01:00pm 14.4 6.1 6.3 58 3.9 WSW 39 50 21 27 1018.4 1018.4 0.0
21/12:30pm 14.8 8.2 6.1 56 4.2 WSW 30 41 16 22 1018.1 1018.1 0.0
21/12:03pm 12.6 6.0 6.0 64 3.1 SW 30 52 16 28 1018.0 1018.0 0.0
21/12:00pm 12.9 6.4 6.5 65 3.1 WSW 30 46 16 25 1018.0 1018.0 0.0
21/11:53am 12.7 4.5 6.5 66 3.0 WSW 39 57 21 31 1017.9 1017.9 0.0
21/11:30am 12.7 4.6 5.4 61 3.4 WSW 37 50 20 27 1017.5 1017.5 0.0
21/11:00am 12.8 4.9 4.5 57 3.8 SW 35 54 19 29 1017.4 1017.4 0.0
21/10:44am 12.3 5.4 7.2 71 2.5 SW 33 52 18 28 1017.2 1017.2 0.0
21/10:30am 12.8 4.5 5.9 63 3.3 WSW 39 52 21 28 1016.8 1016.8 0.0
21/10:04am 12.6 5.5 6.4 66 3.0 SW 33 52 18 28 1016.6 1016.6 0.0
21/10:00am 12.9 5.1 6.7 66 3.0 SW 37 52 20 28 1016.6 1016.6 0.0
21/09:30am 12.9 4.0 5.3 60 3.5 WSW 41 59 22 32 1016.1 1016.1 0.0
21/09:00am 12.5 4.2 6.1 65 3.0 WSW 39 57 21 31 1015.9 1015.9 3.8
21/08:45am 11.9 2.8 6.6 70 2.5 WSW 44 63 24 34 1015.7 1015.6 3.8
21/08:30am 11.7 1.2 5.8 67 2.8 WSW 50 61 27 33 1015.1 1015.0 3.8
21/08:03am 11.4 0.5 5.7 68 2.6 WSW 52 70 28 38 1014.7 1014.6 3.8
21/08:00am 11.3 0.0 5.4 67 2.7 WSW 54 70 29 38 1014.7 1014.6 3.8
21/07:32am 11.5 1.8 5.8 68 2.7 WSW 46 65 25 35 1014.3 1014.2 3.8
21/07:30am 11.4 1.7 5.9 69 2.6 WSW 46 57 25 31 1014.3 1014.2 3.8
21/07:03am 10.7 2.8 6.1 73 2.1 W 37 61 20 33 1013.8 1013.7 3.8
21/07:00am 10.7 3.3 6.6 76 1.9 W 35 48 19 26 1013.9 1013.8 3.8
21/06:51am 10.7 1.8 6.8 77 1.8 WSW 43 61 23 33 1013.7 1013.6 3.8
21/06:30am 9.8 0.6 6.2 78 1.7 WSW 44 59 24 32 1013.4 1013.3 3.8
21/06:11am 10.5 0.3 5.3 70 2.4 WSW 48 70 26 38 1013.3 1013.2 3.4
21/06:00am 11.4 1.9 4.8 64 3.0 WSW 44 61 24 33 1013.2 1013.1 3.4
21/05:30am 11.3 1.5 5.2 66 2.8 WSW 46 59 25 32 1013.0 1012.9 3.4
21/05:00am 11.4 1.2 5.1 65 2.9 WSW 48 63 26 34 1012.9 1012.8 3.4
21/04:30am 11.2 1.3 4.7 64 3.0 WSW 46 61 25 33 1012.6 1012.5 3.4
21/04:01am 10.9 2.5 5.7 70 2.4 WSW 39 57 21 31 1012.6 1012.5 3.4
21/04:00am 10.8 2.8 5.6 70 2.4 WSW 37 54 20 29 1012.6 1012.5 3.4
21/03:30am 10.7 1.3 7.2 79 1.7 WSW 46 65 25 35 1012.3 1012.2 3.4
21/03:00am 10.0 0.5 6.9 81 1.5 WSW 46 72 25 39 1012.5 1012.4 3.2
21/02:34am 11.9 1.8 7.4 74 2.2 WSW 50 72 27 39 1011.9 1011.8 2.8
21/02:30am 11.7 1.8 6.8 72 2.3 WSW 48 61 26 33 1011.9 1011.8 2.8
21/02:00am 11.7 3.4 7.6 76 2.0 WSW 41 59 22 32 1011.9 1011.8 2.8
21/01:56am 11.5 3.0 6.8 73 2.2 WSW 41 59 22 32 1011.8 1011.7 2.8
21/01:30am 10.7 3.2 7.8 82 1.4 W 37 48 20 26 1011.8 1011.7 2.8
21/01:00am 10.4 1.4 7.1 80 1.6 WSW 44 65 24 35 1011.9 1011.8 2.8
21/12:54am 11.5 2.3 6.4 71 2.4 WSW 44 65 24 35 1011.8 1011.7 2.6
21/12:30am 11.5 1.7 5.4 66 2.8 WSW 46 57 25 31 1011.7 1011.6 2.6
21/12:14am 11.5 2.1 5.6 67 2.7 WSW 44 65 24 35 1011.6 1011.5 2.6
21/12:00am 11.5 2.2 6.0 69 2.6 WSW 44 59 24 32 1011.7 1011.6 2.6
 
Date/Time
EDT
Temp
°C
App
Temp
°C
Dew
Point
°C
Rel
Hum
%
Delta-T
°C
Wind Press
QNH
hPa
Press
MSL
hPa
Rain since
9am
mm
Dir  Spd
km/h
Gust
km/h
Spd
kts
Gust
kts
20/11:30pm 11.4 3.6 6.7 73 2.2 WSW 37 57 20 31 1011.5 1011.4 2.6
20/11:27pm 11.4 3.7 6.9 74 2.1 WSW 37 57 20 31 1011.5 1011.4 2.6
20/11:00pm 11.4 3.5 7.9 79 1.7 WSW 39 52 21 28 1011.3 1011.2 2.6
20/10:30pm 11.6 2.5 8.3 80 1.6 WSW 46 61 25 33 1011.2 1011.1 2.6
20/10:00pm 11.8 3.0 9.4 85 1.2 WSW 46 65 25 35 1010.9 1010.8 2.6
20/09:59pm 11.7 3.2 9.1 84 1.3 WSW 44 65 24 35 1010.9 1010.8 2.6
20/09:30pm 11.8 5.6 10.0 89 0.9 W 33 46 18 25 1010.6 1010.5 1.4
20/09:00pm 11.6 3.1 9.3 86 1.2 W 44 57 24 31 1010.3 1010.2 1.2
20/08:52pm 11.8 5.9 9.2 84 1.3 W 30 56 16 30 1010.4 1010.3 0.8
20/08:51pm 12.0 6.6 9.6 85 1.2 W 28 44 15 24 1010.5 1010.4 0.8
20/08:30pm 12.9 8.8 8.8 76 2.1 WNW 20 26 11 14 1009.9 1009.8 0.0
20/08:00pm 13.2 7.2 8.5 73 2.4 W 30 43 16 23 1009.8 1009.7 0.0
20/07:30pm 13.5 7.0 8.8 73 2.4 WNW 33 39 18 21 1009.8 1009.7 0.0
20/07:00pm 14.1 8.4 8.3 68 2.9 W 28 41 15 22 1009.8 1009.7 0.0
20/06:30pm 14.9 8.5 8.4 65 3.3 WSW 32 44 17 24 1009.8 1009.7 0.0
20/06:00pm 13.9 6.8 7.9 67 3.0 WSW 35 44 19 24 1009.9 1009.8 0.0
20/05:30pm 15.4 9.1 7.4 59 4.0 W 30 39 16 21 1009.7 1009.6 0.0
20/05:00pm 15.1 10.3 7.4 60 3.8 W 22 32 12 17 1009.9 1009.8 0.0
20/04:30pm 14.5 10.1 7.3 62 3.5 W 20 26 11 14 1010.2 1010.1 0.0
20/04:00pm 14.6 10.2 7.2 61 3.6 W 20 30 11 16 1010.3 1010.2 0.0
20/03:30pm 15.1 9.1 7.2 59 3.9 W 28 35 15 19 1010.6 1010.5 0.0
20/03:00pm 13.9 6.6 7.4 65 3.2 W 35 46 19 25 1011.0 1010.9 0.0
20/02:30pm 13.5 4.8 7.5 67 2.9 WSW 43 56 23 30 1010.9 1010.8 0.0
20/02:00pm 13.5 4.7 7.3 66 3.0 WSW 43 52 23 28 1011.1 1011.0 0.0
20/01:30pm 13.7 5.7 7.5 66 3.0 WSW 39 50 21 27 1011.2 1011.1 0.0
20/01:00pm 13.4 6.1 7.2 66 3.0 WSW 35 44 19 24 1011.5 1011.4 0.0
20/12:30pm 12.4 5.3 7.9 74 2.2 WSW 35 48 19 26 1011.6 1011.5 0.0
20/12:00pm 12.5 5.3 7.8 73 2.3 WSW 35 44 19 24 1011.8 1011.7 0.0
20/11:30am 12.5 4.5 7.4 71 2.5 WSW 39 52 21 28 1012.0 1011.9 0.0
20/11:00am 12.2 4.9 7.3 72 2.4 WSW 35 46 19 25 1012.0 1011.9 0.0
20/10:30am 12.3 6.0 7.6 73 2.3 W 30 41 16 22 1012.0 1011.9 0.0
20/10:00am 12.3 6.2 8.2 76 2.0 W 30 39 16 21 1012.1 1012.0 0.0
20/09:30am 12.0 6.2 8.1 77 1.9 WSW 28 43 15 23 1012.1 1012.0 0.0
20/09:00am 11.7 5.9 7.8 77 1.9 WSW 28 41 15 22 1012.1 1012.0 1.6
20/08:30am 11.5 4.9 7.8 78 1.8 WSW 32 43 17 23 1012.0 1011.9 1.6
20/08:00am 11.5 4.9 8.4 81 1.5 WSW 33 46 18 25 1011.8 1011.7 1.6
20/07:30am 11.8 6.3 9.0 83 1.4 SW 28 41 15 22 1011.6 1011.5 1.6
20/07:00am 11.9 5.4 9.1 83 1.4 SW 33 43 18 23 1011.4 1011.3 1.6
20/06:30am 11.9 5.2 9.5 85 1.2 SW 35 44 19 24 1010.9 1010.8 1.6
20/06:19am 11.8 6.5 10.0 89 0.9 SW 28 46 15 25 1010.9 1010.8 1.6
20/06:00am 11.4 6.1 10.0 91 0.7 SW 28 41 15 22 1011.0 1010.9 1.4
20/05:30am 11.7 5.7 10.1 90 0.8 WSW 32 43 17 23 1010.8 1010.7 0.8
20/05:00am 11.8 7.0 10.2 90 0.8 WSW 26 33 14 18 1010.7 1010.6 0.8
20/04:30am 11.7 6.9 10.3 91 0.7 W 26 35 14 19 1010.7 1010.6 0.8
20/04:00am 11.7 7.7 10.4 92 0.7 WSW 22 30 12 16 1010.9 1010.8 0.8
20/03:30am 11.5 7.0 10.2 92 0.7 WSW 24 30 13 16 1011.0 1010.9 0.8
20/03:00am 11.7 7.7 10.4 92 0.7 W 22 28 12 15 1011.3 1011.2 0.8
20/02:30am 11.5 8.0 10.1 91 0.7 W 19 22 10 12 1011.4 1011.3 0.4
20/02:00am 11.5 8.0 10.1 91 0.7 W 19 24 10 13 1011.8 1011.7 0.4
20/01:30am 11.7 7.6 10.1 90 0.8 W 22 28 12 15 1012.0 1011.9 0.2
20/01:00am 11.6 9.0 9.5 87 1.1 WSW 13 19 7 10 1012.1 1012.0 0.2
20/12:30am 11.9 9.6 9.1 83 1.4 SW 11 17 6 9 1012.4 1012.3 0.0
20/12:00am 13.1 9.5 8.4 73 2.3 S 17 26 9 14 1012.3 1012.2 0.0
 
Date/Time
EDT
Temp
°C
App
Temp
°C
Dew
Point
°C
Rel
Hum
%
Delta-T
°C
Wind Press
QNH
hPa
Press
MSL
hPa
Rain since
9am
mm
Dir  Spd
km/h
Gust
km/h
Spd
kts
Gust
kts
19/11:30pm 13.1 9.5 8.2 72 2.4 SSE 17 20 9 11 1012.2 1012.1 0.0
19/11:00pm 13.0 8.7 7.9 71 2.5 S 20 28 11 15 1012.3 1012.2 0.0
19/10:30pm 13.0 9.0 8.1 72 2.4 S 19 28 10 15 1012.5 1012.4 0.0
19/10:00pm 13.0 8.9 7.9 71 2.5 S 19 30 10 16 1012.6 1012.5 0.0
19/09:30pm 13.0 8.6 7.2 68 2.8 S 20 28 11 15 1012.6 1012.5 0.0
19/09:00pm 12.6 7.9 6.2 65 3.0 S 20 26 11 14 1012.3 1012.2 0.0
19/08:30pm 12.6 7.5 6.0 64 3.1 S 22 33 12 18 1012.4 1012.3 0.0
19/08:00pm 12.9 7.4 6.0 63 3.3 S 24 33 13 18 1012.2 1012.1 0.0
19/07:30pm 13.1 9.0 6.0 62 3.4 S 17 30 9 16 1012.0 1011.9 0.0
19/07:00pm 13.0 8.4 5.7 61 3.4 S 19 32 10 17 1011.8 1011.7 0.0
19/06:30pm 13.3 7.7 5.5 59 3.7 S 24 35 13 19 1011.6 1011.5 0.0
19/06:00pm 13.8 8.6 5.7 58 3.8 S 22 32 12 17 1011.4 1011.3 0.0
19/05:30pm 14.0 9.0 6.6 61 3.6 S 22 35 12 19 1011.3 1011.2 0.0
19/05:00pm 15.5 10.2 6.8 56 4.3 S 24 30 13 16 1011.2 1011.1 0.0
19/04:30pm 15.2 10.6 6.5 56 4.2 S 20 32 11 17 1011.2 1011.1 0.0
19/04:00pm 15.5 10.4 6.0 53 4.6 S 22 28 12 15 1011.3 1011.2 0.0

Other formats

Comma delimited format used in spreadsheet applications
http://www.bom.gov.au/fwo/IDT60801/IDT60801.95967.axf

JavaScript Object Notation format (JSON) in row-major order
http://www.bom.gov.au/fwo/IDT60801/IDT60801.95967.json

Data quality

Most of these data are generated automatically and are frequently updated. Quality checks on data are not normally performed. It is possible for incorrect values to appear. Refer to information at About Latest Weather Observations and please check the disclaimer before using these data.